createdAt,value
2019-04-30T00:01:16.993Z,94.60
2019-04-30T00:03:41.189Z,101.12
2019-04-30T00:06:09.935Z,94.13
2019-04-30T00:08:39.297Z,89.28
2019-04-30T00:11:10.786Z,88.78
2019-04-30T00:13:38.525Z,90.80
2019-04-30T00:16:07.267Z,86.17
2019-04-30T00:18:39.514Z,105.43
2019-04-30T00:21:09.934Z,117.30
2019-04-30T00:23:36.838Z,117.77
2019-04-30T00:26:10.334Z,118.17
2019-04-30T00:28:39.381Z,117.77
2019-04-30T00:31:06.512Z,117.20
2019-04-30T00:33:35.472Z,114.23
2019-04-30T00:36:04.977Z,123.20
2019-04-30T00:38:37.665Z,109.65
2019-04-30T00:41:06.753Z,124.27
2019-04-30T00:43:37.603Z,115.90
2019-04-30T00:46:05.689Z,104.83
2019-04-30T00:48:35.708Z,115.10
2019-04-30T00:51:07.479Z,118.05
2019-04-30T00:53:35.928Z,115.22
2019-04-30T00:56:05.701Z,116.82
2019-04-30T00:58:35.695Z,100.83
2019-04-30T01:01:17.463Z,114.70
2019-04-30T01:03:56.749Z,111.90
2019-04-30T01:06:28.637Z,106.78
2019-04-30T01:08:58.315Z,116.62
2019-04-30T01:11:26.329Z,115.33
2019-04-30T01:13:55.076Z,113.88
2019-04-30T01:16:30.118Z,125.05
2019-04-30T01:18:54.377Z,118.15
2019-04-30T01:21:23.244Z,118.65
2019-04-30T01:23:54.773Z,116.87
2019-04-30T01:26:27.761Z,111.35
2019-04-30T01:29:00.571Z,125.05
2019-04-30T01:31:25.668Z,114.03
2019-04-30T01:33:54.482Z,121.05
2019-04-30T01:36:23.254Z,121.22
2019-04-30T01:38:52.535Z,82.10
2019-04-30T01:41:27.562Z,91.30
2019-04-30T01:43:51.835Z,94.62
2019-04-30T01:46:20.968Z,90.30
2019-04-30T01:48:51.958Z,100.92
2019-04-30T01:51:21.806Z,100.62
2019-04-30T01:53:50.820Z,100.47
2019-04-30T01:56:28.875Z,97.42
2019-04-30T01:58:59.572Z,91.95
2019-04-30T02:01:31.196Z,97.10
2019-04-30T02:04:00.094Z,102.60
2019-04-30T02:06:29.465Z,102.02
2019-04-30T02:08:59.369Z,99.32
2019-04-30T02:11:28.863Z,105.63
2019-04-30T02:13:59.082Z,104.70
2019-04-30T02:16:29.035Z,133.20
2019-04-30T02:18:59.692Z,133.72
2019-04-30T02:21:30.333Z,140.32
2019-04-30T02:23:59.001Z,127.05
2019-04-30T02:26:28.656Z,134.18
2019-04-30T02:28:59.330Z,135.65
2019-04-30T02:31:30.752Z,132.20
2019-04-30T02:34:00.427Z,133.03
2019-04-30T02:36:40.050Z,129.85
2019-04-30T02:39:10.838Z,129.05
2019-04-30T02:41:41.244Z,131.40
2019-04-30T02:44:11.215Z,133.15
2019-04-30T02:46:41.754Z,128.50
2019-04-30T02:49:11.824Z,133.40
2019-04-30T02:51:42.505Z,133.37
2019-04-30T02:54:14.213Z,139.47
2019-04-30T02:56:44.594Z,138.95
2019-04-30T02:59:13.360Z,124.07
2019-04-30T03:01:42.173Z,133.00
2019-04-30T03:04:10.932Z,128.80
2019-04-30T03:06:40.323Z,144.02
2019-04-30T03:09:10.283Z,140.60
2019-04-30T03:11:40.582Z,139.90
2019-04-30T03:14:10.561Z,140.73
2019-04-30T03:16:41.720Z,127.30
2019-04-30T03:19:12.111Z,128.07
2019-04-30T03:21:42.521Z,136.62
2019-04-30T03:24:11.565Z,127.17
2019-04-30T03:26:40.588Z,130.22
2019-04-30T03:29:11.225Z,122.15
2019-04-30T03:31:44.037Z,121.72
2019-04-30T03:34:16.589Z,132.53
2019-04-30T03:36:40.835Z,127.38
2019-04-30T03:39:10.804Z,134.07
2019-04-30T03:41:41.389Z,122.85
2019-04-30T03:44:20.953Z,118.77
2019-04-30T03:46:40.952Z,115.17
2019-04-30T03:49:12.516Z,118.95
2019-04-30T03:51:40.528Z,124.50
2019-04-30T03:54:10.383Z,79.07
2019-04-30T03:56:40.493Z,89.90
2019-04-30T03:59:10.655Z,91.08
2019-04-30T04:01:49.734Z,96.95
2019-04-30T04:04:20.200Z,90.70
2019-04-30T04:06:53.631Z,96.37
2019-04-30T04:09:40.105Z,105.70
2019-04-30T04:12:21.035Z,108.20
2019-04-30T04:14:51.001Z,88.20
2019-04-30T04:17:20.704Z,105.87
2019-04-30T04:19:52.879Z,135.18
2019-04-30T04:22:22.281Z,132.05
2019-04-30T04:24:52.235Z,127.10
2019-04-30T04:27:20.961Z,124.38
2019-04-30T04:29:51.140Z,122.87
2019-04-30T04:32:23.959Z,126.90
2019-04-30T04:34:50.923Z,124.82
2019-04-30T04:37:20.337Z,119.85
2019-04-30T04:39:50.170Z,119.08
2019-04-30T04:42:20.557Z,117.30
2019-04-30T04:44:50.129Z,129.80
2019-04-30T04:47:20.235Z,123.90
2019-04-30T04:49:53.287Z,117.67
2019-04-30T04:52:21.474Z,114.77
2019-04-30T04:54:50.859Z,115.85
2019-04-30T04:57:22.705Z,118.33
2019-04-30T04:59:50.365Z,117.62
2019-04-30T05:02:39.509Z,103.95
2019-04-30T05:05:09.629Z,120.20
2019-04-30T05:07:39.950Z,117.65
2019-04-30T05:10:09.534Z,106.35
2019-04-30T05:12:39.791Z,113.57
2019-04-30T05:15:09.676Z,110.35
2019-04-30T05:17:39.720Z,81.70
2019-04-30T05:20:10.066Z,90.45
2019-04-30T05:22:39.119Z,88.70
2019-04-30T05:25:09.050Z,94.03
2019-04-30T05:27:39.225Z,93.90
2019-04-30T05:30:11.775Z,91.22
2019-04-30T05:32:39.454Z,92.70
2019-04-30T05:35:09.571Z,95.50
2019-04-30T05:37:38.600Z,100.05
2019-04-30T05:40:09.145Z,101.07
2019-04-30T05:42:38.736Z,98.50
2019-04-30T05:45:09.313Z,96.12
2019-04-30T05:47:38.854Z,90.97
2019-04-30T05:50:09.004Z,92.20
2019-04-30T05:52:39.817Z,101.95
2019-04-30T05:55:08.718Z,95.75
2019-04-30T05:57:40.809Z,97.30
2019-04-30T06:00:10.019Z,114.03
2019-04-30T06:02:40.000Z,130.52
2019-04-30T06:05:09.607Z,124.02
2019-04-30T06:07:39.447Z,125.75
2019-04-30T06:10:10.544Z,128.72
2019-04-30T06:12:59.479Z,114.37
2019-04-30T06:15:30.038Z,123.87
2019-04-30T06:18:02.875Z,124.80
2019-04-30T06:20:29.193Z,119.65
2019-04-30T06:22:59.693Z,119.67
2019-04-30T06:25:41.104Z,119.00
2019-04-30T06:27:59.753Z,123.53
2019-04-30T06:30:29.726Z,121.72
2019-04-30T06:32:59.608Z,109.65
2019-04-30T06:35:29.365Z,117.08
2019-04-30T06:37:59.103Z,115.97
2019-04-30T06:40:29.286Z,119.67
2019-04-30T06:43:00.724Z,109.05
2019-04-30T06:45:31.189Z,113.92
2019-04-30T06:48:02.602Z,111.08
2019-04-30T06:50:31.565Z,110.50
2019-04-30T06:53:01.693Z,113.70
2019-04-30T06:55:30.980Z,112.32
2019-04-30T06:58:11.487Z,122.37
2019-04-30T07:00:40.164Z,110.05
2019-04-30T07:03:09.643Z,112.85
2019-04-30T07:05:39.110Z,114.27
2019-04-30T07:08:36.341Z,122.13
2019-04-30T07:11:14.720Z,108.42
2019-04-30T07:13:45.565Z,105.05
2019-04-30T07:16:14.577Z,108.70
2019-04-30T07:18:43.416Z,110.40
2019-04-30T07:21:12.153Z,102.80
2019-04-30T07:23:40.920Z,105.95
2019-04-30T07:26:13.740Z,102.72
2019-04-30T07:28:46.559Z,86.02
2019-04-30T07:31:14.362Z,83.27
2019-04-30T07:33:40.977Z,85.03
2019-04-30T07:36:09.870Z,91.37
2019-04-30T07:38:45.727Z,85.65
2019-04-30T07:41:09.624Z,88.87
2019-04-30T07:43:39.234Z,89.72
2019-04-30T07:46:09.312Z,83.25
2019-04-30T07:48:40.254Z,87.97
2019-04-30T07:51:10.314Z,96.75
2019-04-30T07:53:40.454Z,80.50
2019-04-30T07:56:24.272Z,94.77
2019-04-30T07:58:39.802Z,116.33
2019-04-30T08:01:10.300Z,105.00
2019-04-30T08:03:58.982Z,112.00
2019-04-30T08:09:00.846Z,102.90
2019-04-30T08:09:35.580Z,104.95
2019-04-30T08:11:29.467Z,108.35
2019-04-30T08:13:58.928Z,111.13
2019-04-30T08:16:28.748Z,96.12
2019-04-30T08:18:59.203Z,110.15
2019-04-30T08:21:28.825Z,101.27
2019-04-30T08:24:00.722Z,95.20
2019-04-30T08:26:28.699Z,100.85
2019-04-30T08:28:59.796Z,103.70
2019-04-30T08:31:29.210Z,102.60
2019-04-30T08:33:59.128Z,105.10
2019-04-30T08:36:29.773Z,107.27
2019-04-30T08:38:59.658Z,101.25
2019-04-30T08:41:29.398Z,95.45
2019-04-30T08:43:59.785Z,97.75
2019-04-30T08:46:28.758Z,94.97
2019-04-30T08:48:58.763Z,92.08
2019-04-30T08:51:30.519Z,91.82
2019-04-30T08:53:58.718Z,89.45
2019-04-30T08:56:29.626Z,94.90
2019-04-30T08:58:59.412Z,95.80
2019-04-30T09:01:29.414Z,89.10
2019-04-30T09:03:59.658Z,75.00
2019-04-30T09:06:29.857Z,60.52
2019-04-30T09:08:59.391Z,62.88
2019-04-30T09:11:34.106Z,66.95
2019-04-30T09:13:58.740Z,72.93
2019-04-30T09:16:29.313Z,72.60
2019-04-30T09:18:59.487Z,67.70
2019-04-30T09:21:29.982Z,75.28
2019-04-30T09:23:59.430Z,97.80
2019-04-30T09:26:29.075Z,90.87
2019-04-30T09:28:59.290Z,88.70
2019-04-30T09:31:29.589Z,101.20
2019-04-30T09:34:00.761Z,91.10
2019-04-30T09:36:29.351Z,84.20
2019-04-30T09:39:01.002Z,91.57
2019-04-30T09:41:28.860Z,94.10
2019-04-30T09:43:59.648Z,87.17
2019-04-30T09:46:29.980Z,97.90
2019-04-30T09:48:59.767Z,93.58
2019-04-30T09:51:30.457Z,96.22
2019-04-30T09:54:02.319Z,88.12
2019-04-30T09:56:29.574Z,91.15
2019-04-30T09:58:59.246Z,83.97
2019-04-30T10:01:28.161Z,89.55
2019-04-30T10:03:57.349Z,98.60
2019-04-30T10:06:39.030Z,87.33
2019-04-30T10:08:59.501Z,94.47
2019-04-30T10:11:35.528Z,81.32
2019-04-30T10:14:04.532Z,84.22
2019-04-30T10:16:50.053Z,88.57
2019-04-30T10:19:19.204Z,87.17
2019-04-30T10:21:48.999Z,84.75
2019-04-30T10:24:19.623Z,86.35
2019-04-30T10:26:48.417Z,88.00
2019-04-30T10:29:17.961Z,89.22
2019-04-30T10:31:48.850Z,90.57
2019-04-30T10:34:17.285Z,82.37
2019-04-30T10:36:46.220Z,75.57
2019-04-30T10:39:14.981Z,76.42
2019-04-30T10:41:43.733Z,82.12
2019-04-30T10:44:12.470Z,83.72
2019-04-30T10:46:41.237Z,81.25
2019-04-30T10:49:10.054Z,90.65
2019-04-30T10:51:38.935Z,83.65
2019-04-30T10:54:08.853Z,82.20
2019-04-30T10:56:37.718Z,76.47
2019-04-30T10:59:06.452Z,87.35
2019-04-30T11:01:35.188Z,77.32
2019-04-30T11:04:06.357Z,91.37
2019-04-30T11:06:35.292Z,81.60
2019-04-30T11:09:05.728Z,80.28
2019-04-30T11:11:34.547Z,81.30
2019-04-30T11:14:03.308Z,66.82
2019-04-30T11:16:32.044Z,73.52
2019-04-30T11:19:00.851Z,80.28
2019-04-30T11:21:29.704Z,80.57
2019-04-30T11:23:59.512Z,69.97
2019-04-30T11:26:31.106Z,73.63
2019-04-30T11:28:59.008Z,70.50
2019-04-30T11:31:29.617Z,82.60
2019-04-30T11:34:00.199Z,78.28
2019-04-30T11:36:29.274Z,81.22
2019-04-30T11:38:58.622Z,80.07
2019-04-30T11:41:30.904Z,85.83
2019-04-30T11:43:59.473Z,74.05
2019-04-30T11:46:49.478Z,81.82
2019-04-30T11:49:18.346Z,79.03
2019-04-30T11:51:47.089Z,74.32
2019-04-30T11:54:15.825Z,63.48
2019-04-30T11:56:44.596Z,57.95
2019-04-30T11:59:13.409Z,61.50
2019-04-30T12:01:42.549Z,61.10
2019-04-30T12:04:11.297Z,65.03
2019-04-30T12:06:40.133Z,64.72
2019-04-30T12:09:14.758Z,74.22
2019-04-30T12:11:45.281Z,79.03
2019-04-30T12:14:14.026Z,75.92
2019-04-30T12:16:42.872Z,80.03
2019-04-30T12:19:11.620Z,84.92
2019-04-30T12:21:40.689Z,84.13
2019-04-30T12:24:09.429Z,79.30
2019-04-30T12:26:38.888Z,74.82
2019-04-30T12:29:08.968Z,75.67
2019-04-30T12:31:38.337Z,74.95
2019-04-30T12:34:07.070Z,73.83
2019-04-30T12:36:35.836Z,86.97
2019-04-30T12:39:06.094Z,72.90
2019-04-30T12:41:34.857Z,75.83
2019-04-30T12:44:03.592Z,84.63
2019-04-30T12:46:32.435Z,91.37
2019-04-30T12:49:05.520Z,87.75
2019-04-30T12:51:45.636Z,79.58
2019-04-30T12:54:10.813Z,77.47
2019-04-30T12:56:43.900Z,72.50
2019-04-30T12:59:12.710Z,74.37
2019-04-30T13:01:41.752Z,65.85
2019-04-30T13:04:10.490Z,64.80
2019-04-30T13:06:39.670Z,65.63
2019-04-30T13:09:10.780Z,73.83
2019-04-30T13:11:40.869Z,64.70
2019-04-30T13:14:11.121Z,60.30
2019-04-30T13:16:40.413Z,58.75
2019-04-30T13:19:09.365Z,59.15
2019-04-30T13:21:39.546Z,50.88
2019-04-30T13:24:08.379Z,57.90
2019-04-30T13:26:37.152Z,48.93
2019-04-30T13:29:07.596Z,48.85
2019-04-30T13:31:36.433Z,49.80
2019-04-30T13:34:23.521Z,52.05
2019-04-30T13:36:52.369Z,51.40
2019-04-30T13:39:22.781Z,48.70
2019-04-30T13:42:15.845Z,50.17
2019-04-30T13:44:40.286Z,46.35
2019-04-30T13:47:10.823Z,58.75
2019-04-30T13:49:42.253Z,47.62
2019-04-30T13:52:11.024Z,46.58
2019-04-30T13:54:39.796Z,48.42
2019-04-30T13:57:09.813Z,46.68
2019-04-30T13:59:38.719Z,48.80
2019-04-30T14:02:08.771Z,42.80
2019-04-30T14:04:55.668Z,42.20
2019-04-30T14:07:26.089Z,44.67
2019-04-30T14:09:54.934Z,61.77
2019-04-30T14:12:23.664Z,49.00
2019-04-30T14:14:52.505Z,45.55
2019-04-30T14:19:54.555Z,49.40
2019-04-30T14:22:23.362Z,78.02
2019-04-30T14:24:52.190Z,52.17
2019-04-30T14:27:20.929Z,45.73
2019-04-30T14:29:49.696Z,64.05
2019-04-30T14:32:18.653Z,40.33
2019-04-30T14:34:50.440Z,50.63
2019-04-30T14:37:17.876Z,40.98
2019-04-30T14:39:46.646Z,48.30
2019-04-30T14:42:16.093Z,40.48
2019-04-30T14:44:46.238Z,41.05
2019-04-30T14:47:30.962Z,43.90
2019-04-30T14:50:04.812Z,45.23
2019-04-30T14:52:32.721Z,52.50
2019-04-30T14:55:18.793Z,54.35
2019-04-30T14:57:52.305Z,50.25
2019-04-30T15:00:32.066Z,53.10
2019-04-30T15:03:09.471Z,49.50
2019-04-30T15:05:43.549Z,54.77
2019-04-30T15:08:08.791Z,49.70
2019-04-30T15:10:37.919Z,50.63
2019-04-30T15:13:21.567Z,45.67
2019-04-30T15:15:49.412Z,48.50
2019-04-30T15:18:19.175Z,48.73
2019-04-30T15:20:49.762Z,44.95
2019-04-30T15:23:36.292Z,54.25
2019-04-30T15:26:05.113Z,45.40
2019-04-30T15:31:08.463Z,47.15
2019-04-30T15:33:38.644Z,45.10
2019-04-30T15:36:09.630Z,47.98
2019-04-30T15:38:55.602Z,44.33
2019-04-30T15:41:24.440Z,45.00
2019-04-30T15:43:53.244Z,44.03
2019-04-30T15:46:22.089Z,48.83
2019-04-30T15:48:50.821Z,42.13
2019-04-30T15:51:19.585Z,45.17
2019-04-30T15:53:48.323Z,45.93
2019-04-30T15:56:19.159Z,44.33
2019-04-30T15:59:05.497Z,49.90
2019-04-30T16:01:34.290Z,49.55
2019-04-30T16:04:03.492Z,45.85
2019-04-30T16:06:32.261Z,41.30
2019-04-30T16:09:02.634Z,36.17
2019-04-30T16:11:33.051Z,46.25
2019-04-30T16:14:09.240Z,39.23
2019-04-30T16:16:39.657Z,39.00
2019-04-30T16:19:09.130Z,41.83
2019-04-30T16:21:38.037Z,40.85
2019-04-30T16:24:08.600Z,41.08
2019-04-30T16:26:47.256Z,33.15
2019-04-30T16:29:09.831Z,34.53
2019-04-30T16:31:39.140Z,32.80
2019-04-30T16:34:08.035Z,38.83
2019-04-30T16:36:36.773Z,39.23
2019-04-30T16:39:08.757Z,36.40
2019-04-30T16:41:40.555Z,43.80
2019-04-30T16:44:09.221Z,46.10
2019-04-30T16:46:39.493Z,48.65
2019-04-30T16:49:10.193Z,51.02
2019-04-30T16:51:40.897Z,57.07
2019-04-30T16:54:09.668Z,47.63
2019-04-30T16:56:38.794Z,51.53
2019-04-30T16:59:15.293Z,47.95
2019-04-30T17:01:56.626Z,45.30
2019-04-30T17:04:19.258Z,47.93
2019-04-30T17:06:52.632Z,50.38
2019-04-30T17:09:25.776Z,47.35
2019-04-30T17:12:12.689Z,52.78
2019-04-30T17:14:45.037Z,48.83
2019-04-30T17:17:13.850Z,53.45
2019-04-30T17:19:42.685Z,53.85
2019-04-30T17:22:11.466Z,49.80
2019-04-30T17:24:40.309Z,56.83
2019-04-30T17:27:18.658Z,58.78
2019-04-30T17:29:39.620Z,61.50
2019-04-30T17:32:08.760Z,54.65
2019-04-30T17:34:38.979Z,53.30
2019-04-30T17:37:09.135Z,49.05
2019-04-30T17:39:40.892Z,50.38
2019-04-30T17:42:09.758Z,53.20
2019-04-30T17:44:39.741Z,61.18
2019-04-30T17:47:09.154Z,57.83
2019-04-30T17:49:37.872Z,55.48
2019-04-30T17:52:08.718Z,42.27
2019-04-30T17:54:37.456Z,50.10
2019-04-30T17:57:06.352Z,48.65
2019-04-30T17:59:36.847Z,42.25
2019-04-30T18:02:09.545Z,43.02
2019-04-30T18:04:38.238Z,49.55
2019-04-30T18:07:07.000Z,48.28
2019-04-30T18:09:35.742Z,49.00
2019-04-30T18:12:04.785Z,48.42
2019-04-30T18:14:35.153Z,57.38
2019-04-30T18:17:04.021Z,58.98
2019-04-30T18:19:50.136Z,59.35
2019-04-30T18:22:29.283Z,58.00
2019-04-30T18:25:15.684Z,58.28
2019-04-30T18:27:52.161Z,60.30
2019-04-30T18:30:22.537Z,54.23
2019-04-30T18:32:51.441Z,48.68
2019-04-30T18:35:20.346Z,53.05
2019-04-30T18:37:49.276Z,52.75
2019-04-30T18:40:18.669Z,54.27
2019-04-30T18:42:49.522Z,53.10
2019-04-30T18:45:19.443Z,53.02
2019-04-30T18:47:48.440Z,54.23
2019-04-30T18:50:17.411Z,56.30
2019-04-30T18:52:48.709Z,56.35
2019-04-30T18:55:19.178Z,60.33
2019-04-30T18:57:56.430Z,67.37
2019-04-30T19:00:20.176Z,66.07
2019-04-30T19:02:49.060Z,64.00
2019-04-30T19:05:19.456Z,61.18
2019-04-30T19:07:52.823Z,59.93
2019-04-30T19:10:26.080Z,63.52
2019-04-30T19:12:56.444Z,66.85
2019-04-30T19:16:11.431Z,66.45
2019-04-30T19:18:11.313Z,73.13
2019-04-30T19:20:41.729Z,69.40
2019-04-30T19:23:10.624Z,79.37
2019-04-30T19:25:39.593Z,74.07
2019-04-30T19:28:12.089Z,82.33
2019-04-30T19:30:39.070Z,77.73
2019-04-30T19:33:08.702Z,72.58
2019-04-30T19:35:37.716Z,70.78
2019-04-30T19:38:06.503Z,83.03
2019-04-30T19:40:35.357Z,82.70
2019-04-30T19:43:04.117Z,79.12
2019-04-30T19:45:32.952Z,77.45
2019-04-30T19:48:01.785Z,77.87
2019-04-30T19:50:30.557Z,73.70
2019-04-30T19:52:59.297Z,77.62
2019-04-30T19:55:28.571Z,84.03
2019-04-30T19:57:59.701Z,88.37
2019-04-30T20:00:29.110Z,86.63
2019-04-30T20:02:59.973Z,86.08
2019-04-30T20:05:28.970Z,91.35
2019-04-30T20:07:59.183Z,85.92
2019-04-30T20:10:28.772Z,76.35
2019-04-30T20:12:58.778Z,84.22
2019-04-30T20:15:29.657Z,87.12
2019-04-30T20:17:58.709Z,78.67
2019-04-30T20:20:28.838Z,84.67
2019-04-30T20:24:29.318Z,82.12
2019-04-30T20:27:06.384Z,90.97
2019-04-30T20:29:28.817Z,87.37
2019-04-30T20:31:58.986Z,88.93
2019-04-30T20:34:29.274Z,80.10
2019-04-30T20:37:00.177Z,85.40
2019-04-30T20:39:33.020Z,89.07
2019-04-30T20:42:01.789Z,79.77
2019-04-30T20:44:30.597Z,81.12
2019-04-30T20:46:59.438Z,83.60
2019-04-30T20:49:29.114Z,87.75
2019-04-30T20:51:58.977Z,80.67
2019-04-30T20:54:29.089Z,84.95
2019-04-30T20:56:58.953Z,83.72
2019-04-30T20:59:28.993Z,87.35
2019-04-30T21:01:58.036Z,90.28
2019-04-30T21:04:26.887Z,93.30
2019-04-30T21:06:55.693Z,92.95
2019-04-30T21:09:24.530Z,83.37
2019-04-30T21:11:53.344Z,93.80
2019-04-30T21:14:22.108Z,83.73
2019-04-30T21:16:50.878Z,85.60
2019-04-30T21:19:19.627Z,81.57
2019-04-30T21:21:49.739Z,75.52
2019-04-30T21:24:18.647Z,83.03
2019-04-30T21:26:47.493Z,86.93
2019-04-30T21:29:16.284Z,87.55
2019-04-30T21:31:58.393Z,78.05
2019-04-30T21:34:34.557Z,63.83
2019-04-30T21:37:03.339Z,68.52
2019-04-30T21:39:32.169Z,73.52
2019-04-30T21:42:00.977Z,70.37
2019-04-30T21:44:29.745Z,83.52
2019-04-30T21:46:58.553Z,73.28
2019-04-30T21:49:27.341Z,75.80
2019-04-30T21:51:56.093Z,76.40
2019-04-30T21:54:24.871Z,86.78
2019-04-30T21:56:53.608Z,95.53
2019-04-30T21:59:24.490Z,93.07
2019-04-30T22:01:52.936Z,85.72
2019-04-30T22:04:21.776Z,89.20
2019-04-30T22:06:50.689Z,90.57
2019-04-30T22:09:19.895Z,91.40
2019-04-30T22:11:49.422Z,80.80
2019-04-30T22:14:18.186Z,87.75
2019-04-30T22:16:47.044Z,82.42
2019-04-30T22:19:15.778Z,83.20
2019-04-30T22:21:44.547Z,84.60
2019-04-30T22:24:13.312Z,86.50
2019-04-30T22:26:42.092Z,84.27
2019-04-30T22:29:10.952Z,82.90
2019-04-30T22:31:39.784Z,87.67
2019-04-30T22:34:08.886Z,86.47
2019-04-30T22:36:39.305Z,83.50
2019-04-30T22:39:12.478Z,86.42
2019-04-30T22:41:41.248Z,81.42
2019-04-30T22:44:10.131Z,88.50
2019-04-30T22:46:39.442Z,88.72
2019-04-30T22:49:08.897Z,92.47
2019-04-30T22:51:37.665Z,92.10
2019-04-30T22:54:06.396Z,86.67
2019-04-30T22:56:35.220Z,82.72
2019-04-30T22:59:03.956Z,86.32
2019-04-30T23:01:34.371Z,91.75
2019-04-30T23:04:04.754Z,87.95
2019-04-30T23:06:33.555Z,93.20
2019-04-30T23:09:02.292Z,96.45
2019-04-30T23:11:31.065Z,98.10
2019-04-30T23:14:00.069Z,82.82
2019-04-30T23:16:28.832Z,92.22
2019-04-30T23:18:57.569Z,93.50
2019-04-30T23:21:26.357Z,100.45
2019-04-30T23:23:55.092Z,94.45
2019-04-30T23:26:23.957Z,74.05
2019-04-30T23:28:52.692Z,75.17
2019-04-30T23:31:21.430Z,78.40
2019-04-30T23:33:50.194Z,90.35
2019-04-30T23:36:18.969Z,82.10
2019-04-30T23:38:47.742Z,90.65
2019-04-30T23:41:16.545Z,86.10
2019-04-30T23:43:45.309Z,90.60
2019-04-30T23:46:14.041Z,87.02
2019-04-30T23:48:42.801Z,91.75
2019-04-30T23:51:11.542Z,93.70
2019-04-30T23:53:40.417Z,89.70
2019-04-30T23:56:09.148Z,90.77
2019-04-30T23:58:37.917Z,94.72
